Time;durP1;ratioP1;P1;durP2;ratioP2;P2;SDS_P1;SDS_P2;PMS_P1;PMS_P2;Temp;Humidity;BMP_temperature;BMP_pressure;BME280_temperature;BME280_humidity;BME280_pressure;Samples;Min_cycle;Max_cycle;Signal;HPM_P1;HPM_P2
2022/03/06 00:02:10;;;;;;;18.73;12.38;;;0.80;99.90;;;;;;5043562;28;20048;-71
2022/03/06 00:04:36;;;;;;;21.77;12.63;;;0.80;99.90;;;;;;5059928;28;20071;-71
2022/03/06 00:07:02;;;;;;;19.33;13.00;;;0.80;99.90;;;;;;5078199;28;20056;-71
2022/03/06 00:09:28;;;;;;;20.77;12.32;;;0.80;99.90;;;;;;5041069;28;20060;-71
2022/03/06 00:11:54;;;;;;;21.17;12.20;;;0.90;99.90;;;;;;5059613;28;20056;-72
2022/03/06 00:14:20;;;;;;;19.15;12.52;;;1.70;99.90;;;;;;5042976;28;20051;-71
2022/03/06 00:16:46;;;;;;;20.85;12.60;;;1.00;99.90;;;;;;5060837;28;20059;-71
2022/03/06 00:19:12;;;;;;;19.90;11.68;;;1.00;99.90;;;;;;5059602;28;20598;-71
2022/03/06 00:21:38;;;;;;;19.30;11.70;;;1.00;99.90;;;;;;5045002;28;20047;-72
2022/03/06 00:24:05;;;;;;;18.05;10.85;;;1.00;99.90;;;;;;5041538;28;20072;-71
2022/03/06 00:26:31;;;;;;;18.73;11.85;;;1.10;99.90;;;;;;5041617;28;20037;-72
2022/03/06 00:28:56;;;;;;;17.92;11.20;;;1.10;99.90;;;;;;5038416;28;20107;-72
2022/03/06 00:31:25;;;;;;;17.52;11.35;;;1.20;99.90;;;;;;5041395;28;20512;-72
2022/03/06 00:33:51;;;;;;;17.98;11.15;;;1.20;99.90;;;;;;5045690;28;20049;-71
2022/03/06 00:36:18;;;;;;;16.27;10.43;;;1.30;99.90;;;;;;5046766;28;20052;-71
2022/03/06 00:38:44;;;;;;;16.00;11.15;;;1.30;99.90;;;;;;5049869;28;20048;-72
2022/03/06 00:41:14;;;;;;;17.92;10.05;;;1.40;99.90;;;;;;5051350;28;20051;-71
2022/03/06 00:43:39;;;;;;;16.42;10.35;;;1.40;99.90;;;;;;5077977;28;20045;-72
2022/03/06 00:46:06;;;;;;;16.85;10.48;;;1.40;99.90;;;;;;5050223;28;20131;-72
2022/03/06 00:48:31;;;;;;;15.93;10.27;;;1.50;99.90;;;;;;5042729;28;20159;-72
2022/03/06 00:50:57;;;;;;;18.80;10.10;;;1.50;99.90;;;;;;5042913;28;20049;-71
2022/03/06 00:53:23;;;;;;;14.15;9.98;;;1.50;99.90;;;;;;5058903;28;20373;-71
2022/03/06 00:55:50;;;;;;;16.67;9.98;;;1.60;99.90;;;;;;5062983;28;20483;-72
2022/03/06 00:58:16;;;;;;;17.33;10.20;;;1.60;99.90;;;;;;5047540;28;20365;-72
2022/03/06 01:00:45;;;;;;;15.68;9.60;;;1.60;99.90;;;;;;5050041;28;20089;-72
2022/03/06 01:03:17;;;;;;;15.55;8.75;;;1.60;99.90;;;;;;5047071;28;20088;-72
2022/03/06 01:05:43;;;;;;;17.73;9.73;;;1.60;99.90;;;;;;5036278;28;20077;-72
2022/03/06 01:08:09;;;;;;;15.30;8.98;;;1.60;99.90;;;;;;5035557;28;20549;-72
2022/03/06 01:10:37;;;;;;;15.25;8.95;;;1.60;99.90;;;;;;5067326;28;20122;-72
2022/03/06 01:13:04;;;;;;;15.65;8.38;;;1.60;99.90;;;;;;5046604;28;20377;-72
2022/03/06 01:15:29;;;;;;;13.45;8.20;;;1.60;99.90;;;;;;5044494;28;20064;-72
2022/03/06 01:17:56;;;;;;;16.65;9.65;;;1.60;99.90;;;;;;5050584;28;20106;-72
2022/03/06 01:20:23;;;;;;;13.30;8.68;;;1.60;99.90;;;;;;5034928;28;20045;-72
2022/03/06 01:22:49;;;;;;;16.58;8.60;;;1.60;99.90;;;;;;5038716;28;20048;-72
2022/03/06 01:25:15;;;;;;;13.50;8.25;;;1.60;99.90;;;;;;5068634;28;20041;-72
2022/03/06 01:27:41;;;;;;;18.00;9.80;;;1.60;99.90;;;;;;5053068;28;20036;-72
2022/03/06 01:30:09;;;;;;;13.40;8.50;;;1.50;99.90;;;;;;5072070;28;20048;-72
2022/03/06 01:32:35;;;;;;;12.82;8.88;;;1.60;99.90;;;;;;5047060;28;20045;-71
2022/03/06 01:35:01;;;;;;;16.63;8.73;;;1.60;99.90;;;;;;5071771;28;20044;-72
2022/03/06 01:37:26;;;;;;;14.55;8.55;;;1.60;99.90;;;;;;5067803;28;20072;-72
2022/03/06 01:39:52;;;;;;;13.88;8.15;;;1.60;99.90;;;;;;5040237;28;20392;-72
2022/03/06 01:42:18;;;;;;;14.15;8.15;;;1.60;99.90;;;;;;5054630;28;20052;-71
2022/03/06 01:44:51;;;;;;;14.13;8.18;;;1.60;99.90;;;;;;5059785;28;20052;-72
2022/03/06 01:47:40;;;;;;;15.15;9.43;;;1.60;99.90;;;;;;5064808;28;20036;-72
2022/03/06 01:50:08;;;;;;;15.07;8.65;;;1.70;99.90;;;;;;5063027;28;20052;-72
2022/03/06 01:52:34;;;;;;;14.90;9.10;;;1.60;99.90;;;;;;5042665;28;20110;-72
2022/03/06 01:55:00;;;;;;;15.38;8.63;;;1.60;99.90;;;;;;5077634;28;20508;-72
2022/03/06 01:57:26;;;;;;;14.45;8.25;;;1.60;99.90;;;;;;5048863;28;20087;-72
2022/03/06 01:59:52;;;;;;;16.05;8.63;;;1.60;99.90;;;;;;5044812;28;20056;-72
2022/03/06 02:02:18;;;;;;;15.95;8.45;;;1.60;99.90;;;;;;5046845;28;20045;-72
2022/03/06 02:04:45;;;;;;;13.25;8.10;;;1.60;99.90;;;;;;5043059;28;20122;-72
2022/03/06 02:07:10;;;;;;;14.52;8.25;;;1.60;99.90;;;;;;5043055;28;20491;-72
2022/03/06 02:09:36;;;;;;;14.63;8.60;;;1.70;99.90;;;;;;5041439;28;20064;-72
2022/03/06 02:14:51;;;;;;;13.20;7.95;;;1.60;99.90;;;;;;5039621;28;20405;-72
2022/03/06 02:17:17;;;;;;;14.55;8.68;;;1.70;99.90;;;;;;5045173;28;20052;-72
2022/03/06 02:19:55;;;;;;;12.55;7.90;;;1.60;99.90;;;;;;5037277;28;20048;-72
2022/03/06 02:22:26;;;;;;;13.05;7.43;;;1.70;99.90;;;;;;5043124;28;20442;-71
2022/03/06 02:24:52;;;;;;;12.52;7.88;;;1.60;99.90;;;;;;5046426;28;20047;-72
2022/03/06 02:27:18;;;;;;;15.25;7.95;;;1.70;99.90;;;;;;5045049;28;20128;-72
2022/03/06 02:29:45;;;;;;;11.23;7.05;;;1.70;99.90;;;;;;5046084;28;20511;-72
2022/03/06 02:32:13;;;;;;;14.80;8.13;;;1.70;99.90;;;;;;5049085;28;20056;-72
2022/03/06 02:34:40;;;;;;;13.45;7.47;;;1.70;99.90;;;;;;5043667;28;20036;-72
2022/03/06 02:37:07;;;;;;;11.18;7.13;;;1.70;99.90;;;;;;5046039;28;20040;-72
2022/03/06 02:39:32;;;;;;;14.27;8.07;;;1.70;99.90;;;;;;5038727;28;20056;-72
2022/03/06 02:41:58;;;;;;;13.50;7.75;;;1.70;99.90;;;;;;5076348;28;20052;-72
2022/03/06 02:44:25;;;;;;;13.32;7.35;;;1.70;99.90;;;;;;5060318;28;20063;-72
2022/03/06 02:46:51;;;;;;;12.52;7.70;;;1.70;99.90;;;;;;5044458;28;20045;-72
2022/03/06 02:49:20;;;;;;;13.50;7.70;;;1.70;99.90;;;;;;5042590;28;20057;-72
2022/03/06 02:51:46;;;;;;;14.75;8.20;;;1.70;99.90;;;;;;5045635;28;20041;-72
2022/03/06 02:54:14;;;;;;;14.25;8.52;;;1.70;99.90;;;;;;5043332;28;20044;-72
2022/03/06 02:56:40;;;;;;;12.23;7.63;;;1.70;99.90;;;;;;5038452;28;20045;-72
2022/03/06 02:59:07;;;;;;;13.63;8.25;;;1.70;99.90;;;;;;5047464;28;20047;-72
2022/03/06 03:01:39;;;;;;;15.77;9.20;;;1.70;99.90;;;;;;5040085;28;20057;-72
2022/03/06 03:04:05;;;;;;;14.20;8.45;;;1.40;99.90;;;;;;5057160;28;20041;-72
2022/03/06 03:06:30;;;;;;;13.25;7.45;;;1.70;99.90;;;;;;5045595;28;20048;-72
2022/03/06 03:08:56;;;;;;;11.68;6.80;;;1.60;99.90;;;;;;5042143;28;20080;-72
2022/03/06 03:11:22;;;;;;;13.77;8.50;;;1.60;99.90;;;;;;5040596;28;20094;-72
2022/03/06 03:13:48;;;;;;;13.02;7.38;;;1.60;99.90;;;;;;5045178;28;20048;-72
2022/03/06 03:16:14;;;;;;;13.23;6.55;;;1.50;99.90;;;;;;5048131;28;20040;-72
2022/03/06 03:18:40;;;;;;;10.77;6.05;;;1.50;99.90;;;;;;5038738;28;20694;-72
2022/03/06 03:21:05;;;;;;;11.43;6.97;;;1.40;99.90;;;;;;5038626;28;20407;-72
2022/03/06 03:23:31;;;;;;;13.50;6.13;;;1.40;99.90;;;;;;5047839;28;20036;-72
2022/03/06 03:25:57;;;;;;;10.07;5.50;;;1.30;99.90;;;;;;5053653;28;20047;-72
2022/03/06 03:28:22;;;;;;;8.65;5.47;;;1.40;99.90;;;;;;5063541;28;20136;-72
2022/03/06 03:30:48;;;;;;;10.43;6.43;;;1.30;99.90;;;;;;5075535;28;20098;-72
2022/03/06 03:33:13;;;;;;;12.32;6.15;;;1.20;99.90;;;;;;5042457;28;20114;-72
2022/03/06 03:35:39;;;;;;;8.65;4.63;;;1.20;99.90;;;;;;5037023;28;20075;-72
2022/03/06 03:38:05;;;;;;;8.68;5.28;;;1.40;99.90;;;;;;5062590;28;20065;-72
2022/03/06 03:40:31;;;;;;;11.25;5.28;;;1.10;99.90;;;;;;5043662;28;20135;-73
2022/03/06 03:42:59;;;;;;;12.73;5.03;;;1.40;99.90;;;;;;5063651;28;20593;-72
2022/03/06 03:45:25;;;;;;;9.70;5.78;;;1.10;99.90;;;;;;5061223;28;20551;-72
2022/03/06 03:47:51;;;;;;;9.95;5.30;;;1.00;99.90;;;;;;5063385;28;20063;-72
2022/03/06 03:50:16;;;;;;;9.73;5.57;;;1.90;99.90;;;;;;5059335;28;20506;-72
2022/03/06 03:52:42;;;;;;;9.70;5.25;;;0.90;99.90;;;;;;5057666;28;20112;-72
2022/03/06 03:55:08;;;;;;;9.32;4.78;;;1.60;99.90;;;;;;5045144;28;20060;-72
2022/03/06 03:57:34;;;;;;;10.57;5.82;;;1.00;99.90;;;;;;5059414;28;20076;-72
2022/03/06 03:59:59;;;;;;;12.20;5.10;;;0.40;99.90;;;;;;5041625;28;20441;-72
2022/03/06 04:02:25;;;;;;;11.43;6.05;;;0.90;99.90;;;;;;5056115;28;20389;-72
2022/03/06 04:04:51;;;;;;;8.35;4.47;;;0.90;99.90;;;;;;5069638;28;20036;-72
2022/03/06 04:07:17;;;;;;;11.88;5.38;;;0.90;99.90;;;;;;5037004;28;20048;-72
2022/03/06 04:09:42;;;;;;;10.68;5.25;;;0.80;99.90;;;;;;5041835;28;20063;-72
2022/03/06 04:12:08;;;;;;;9.05;5.40;;;0.80;99.90;;;;;;5060280;28;20045;-72
2022/03/06 04:14:34;;;;;;;10.73;4.95;;;0.80;99.90;;;;;;5043081;28;20037;-72
2022/03/06 04:17:00;;;;;;;13.25;5.63;;;0.80;99.90;;;;;;5049407;28;20109;-72
2022/03/06 04:19:26;;;;;;;8.50;5.10;;;0.80;99.90;;;;;;5038320;28;20040;-72
2022/03/06 04:21:52;;;;;;;11.90;5.32;;;0.80;99.90;;;;;;5042328;28;20143;-72
2022/03/06 04:24:18;;;;;;;8.93;4.63;;;0.80;99.90;;;;;;5062604;28;20040;-72
2022/03/06 04:26:44;;;;;;;9.90;5.63;;;0.80;99.90;;;;;;5070673;28;20041;-72
2022/03/06 04:29:10;;;;;;;10.93;4.97;;;0.80;99.90;;;;;;5042605;28;20044;-72
2022/03/06 04:31:35;;;;;;;9.82;4.97;;;0.70;99.90;;;;;;5062087;28;20041;-72
2022/03/06 04:34:02;;;;;;;10.43;5.22;;;0.70;99.90;;;;;;5038410;28;20032;-73
2022/03/06 04:36:28;;;;;;;8.93;4.82;;;0.70;99.90;;;;;;5042898;28;20415;-72
2022/03/06 04:38:54;;;;;;;12.40;6.20;;;0.70;99.90;;;;;;5065901;28;20052;-72
2022/03/06 04:41:20;;;;;;;9.73;4.57;;;0.70;99.90;;;;;;5058370;28;20041;-72
2022/03/06 04:43:46;;;;;;;10.27;4.70;;;0.40;99.90;;;;;;5057436;28;20090;-72
2022/03/06 04:46:11;;;;;;;8.38;4.72;;;0.50;99.90;;;;;;5064435;28;20044;-72
2022/03/06 04:48:37;;;;;;;10.00;4.57;;;0.50;99.90;;;;;;5066245;28;20052;-72
2022/03/06 04:51:04;;;;;;;8.80;4.60;;;0.50;99.90;;;;;;5036035;28;20068;-72
2022/03/06 04:53:30;;;;;;;9.93;4.82;;;0.50;99.90;;;;;;5042633;28;20048;-72
2022/03/06 04:55:56;;;;;;;8.88;4.32;;;0.40;99.90;;;;;;5042008;28;20049;-72
2022/03/06 04:58:24;;;;;;;9.20;4.50;;;0.40;99.90;;;;;;5066047;28;20051;-72
2022/03/06 05:00:50;;;;;;;9.43;4.28;;;0.40;99.90;;;;;;5040408;28;20060;-72
2022/03/06 05:03:16;;;;;;;9.43;4.47;;;0.30;99.90;;;;;;5045496;28;20072;-72
2022/03/06 05:05:42;;;;;;;9.40;4.60;;;0.30;99.90;;;;;;5077990;28;20048;-72
2022/03/06 05:08:07;;;;;;;8.40;4.13;;;0.50;99.90;;;;;;5046710;28;20040;-72
2022/03/06 05:10:33;;;;;;;7.50;4.20;;;0.20;99.90;;;;;;5049578;28;20046;-73
2022/03/06 05:12:59;;;;;;;8.68;4.22;;;0.20;99.90;;;;;;5044793;28;20538;-72
2022/03/06 05:15:24;;;;;;;7.05;3.78;;;0.20;99.90;;;;;;5045485;28;20044;-72
2022/03/06 05:17:50;;;;;;;8.60;4.28;;;0.20;99.90;;;;;;5040176;28;20049;-72
2022/03/06 05:20:16;;;;;;;9.02;4.00;;;0.20;99.90;;;;;;5041465;28;20040;-72
2022/03/06 05:22:42;;;;;;;9.25;4.78;;;0.20;99.90;;;;;;5047564;28;20044;-72
2022/03/06 05:25:09;;;;;;;9.70;4.45;;;0.20;99.90;;;;;;5050445;28;20450;-72
2022/03/06 05:27:35;;;;;;;8.13;3.75;;;0.20;99.90;;;;;;5048481;28;20111;-72
2022/03/06 05:30:01;;;;;;;10.57;4.50;;;0.10;99.90;;;;;;5048189;28;20037;-72
2022/03/06 05:32:26;;;;;;;9.95;3.75;;;0.10;99.90;;;;;;5060461;28;20044;-72
2022/03/06 05:34:52;;;;;;;7.55;4.13;;;0.10;99.90;;;;;;5050294;28;20476;-72
2022/03/06 05:37:18;;;;;;;9.90;3.92;;;0.00;99.90;;;;;;5041589;28;20392;-72
2022/03/06 05:39:43;;;;;;;8.55;4.07;;;0.00;99.90;;;;;;5040586;28;20053;-72
2022/03/06 05:42:09;;;;;;;7.90;3.83;;;0.00;99.90;;;;;;5042956;28;20451;-72
2022/03/06 05:44:34;;;;;;;8.20;3.90;;;-0.10;99.90;;;;;;5048217;28;20120;-72
2022/03/06 05:47:00;;;;;;;11.77;4.10;;;-0.10;99.90;;;;;;5046238;28;20049;-74
2022/03/06 05:49:29;;;;;;;10.13;3.83;;;-0.10;99.90;;;;;;5057621;28;20041;-73
2022/03/06 05:51:54;;;;;;;10.25;5.00;;;-0.20;99.90;;;;;;5060886;28;20059;-72
2022/03/06 05:54:20;;;;;;;8.10;3.95;;;-0.10;99.90;;;;;;5062648;28;20041;-72
2022/03/06 05:56:45;;;;;;;9.00;3.72;;;-0.20;99.90;;;;;;5057026;28;20132;-72
2022/03/06 05:59:11;;;;;;;7.80;4.20;;;-0.20;99.90;;;;;;5041043;28;20399;-72
2022/03/06 06:01:38;;;;;;;8.68;3.95;;;-0.20;99.90;;;;;;5060831;28;20810;-72
2022/03/06 06:04:04;;;;;;;10.45;4.18;;;-0.20;99.90;;;;;;5064420;28;20036;-72
2022/03/06 06:06:30;;;;;;;11.43;3.88;;;-0.20;99.90;;;;;;5066479;28;20446;-72
2022/03/06 06:08:55;;;;;;;9.65;3.42;;;-0.30;99.90;;;;;;5067683;28;20036;-72
2022/03/06 06:11:21;;;;;;;9.60;4.20;;;-0.30;99.90;;;;;;5066628;28;20044;-72
2022/03/06 06:13:47;;;;;;;5.63;3.10;;;-0.30;99.90;;;;;;5066503;28;20765;-72
2022/03/06 06:16:13;;;;;;;8.25;3.92;;;-0.30;99.90;;;;;;5067702;28;20040;-72
2022/03/06 06:18:40;;;;;;;6.80;3.75;;;-0.40;99.90;;;;;;5048511;28;20041;-72
2022/03/06 06:21:06;;;;;;;9.80;4.10;;;-0.40;99.90;;;;;;5059950;28;20048;-72
2022/03/06 06:23:32;;;;;;;9.48;3.90;;;-0.40;99.90;;;;;;5042512;28;20440;-72
2022/03/06 06:25:57;;;;;;;10.25;4.50;;;-0.40;99.90;;;;;;5061210;28;20140;-72
2022/03/06 06:28:23;;;;;;;7.13;3.60;;;-0.40;99.90;;;;;;5065094;28;20561;-72
2022/03/06 06:30:49;;;;;;;9.50;3.78;;;-0.40;99.90;;;;;;5049674;28;20059;-72
2022/03/06 06:33:14;;;;;;;8.40;3.72;;;-0.40;99.90;;;;;;5059147;28;20365;-72
2022/03/06 06:35:40;;;;;;;11.05;4.15;;;-0.30;99.90;;;;;;5040661;28;20382;-72
2022/03/06 06:38:06;;;;;;;10.90;3.85;;;-0.30;99.90;;;;;;5061906;28;20495;-72
2022/03/06 06:40:31;;;;;;;8.40;4.00;;;-0.30;99.90;;;;;;5042241;28;20057;-72
2022/03/06 06:42:57;;;;;;;6.53;3.97;;;-0.30;99.90;;;;;;5043796;28;20037;-72
2022/03/06 06:45:23;;;;;;;9.43;3.72;;;-0.30;99.90;;;;;;5044419;28;20573;-72
2022/03/06 06:47:49;;;;;;;7.20;3.78;;;-0.30;99.90;;;;;;5047373;28;20059;-72
2022/03/06 06:50:14;;;;;;;6.63;3.42;;;-0.10;99.90;;;;;;5046589;28;20507;-72
2022/03/06 06:52:40;;;;;;;9.82;4.07;;;-0.30;99.90;;;;;;5053384;28;20041;-72
2022/03/06 06:55:06;;;;;;;9.68;4.45;;;-0.40;99.90;;;;;;5067408;28;20136;-72
2022/03/06 06:57:32;;;;;;;11.40;4.65;;;-0.40;99.90;;;;;;5047141;28;20056;-72
2022/03/06 06:59:58;;;;;;;7.25;4.18;;;-0.40;99.90;;;;;;5068011;28;20396;-72
2022/03/06 07:02:24;;;;;;;9.88;3.90;;;-0.40;99.90;;;;;;5069532;28;20049;-72
2022/03/06 07:04:50;;;;;;;11.23;4.10;;;-0.30;99.90;;;;;;5052049;28;20064;-72
2022/03/06 07:07:16;;;;;;;10.25;3.78;;;-0.10;99.90;;;;;;5064903;28;20475;-70
2022/03/06 07:09:41;;;;;;;11.32;4.55;;;-0.30;99.90;;;;;;5044327;28;20459;-70
2022/03/06 07:12:08;;;;;;;10.05;4.28;;;-0.30;99.90;;;;;;5066374;28;20404;-70
2022/03/06 07:14:33;;;;;;;11.02;4.43;;;-0.30;99.90;;;;;;5063236;28;20071;-69
2022/03/06 07:16:59;;;;;;;9.35;4.53;;;-0.20;99.90;;;;;;5045446;28;20082;-70
2022/03/06 07:19:25;;;;;;;9.30;4.28;;;-0.20;99.90;;;;;;5049083;28;20048;-69
2022/03/06 07:21:50;;;;;;;6.85;4.07;;;-0.20;99.90;;;;;;5061722;28;20044;-69
2022/03/06 07:24:16;;;;;;;11.13;5.00;;;-0.10;99.90;;;;;;5065313;28;20099;-69
2022/03/06 07:26:41;;;;;;;9.90;4.40;;;-0.10;99.90;;;;;;5068781;28;20400;-69
2022/03/06 07:29:07;;;;;;;6.20;4.00;;;0.00;99.90;;;;;;5069162;28;20045;-70
2022/03/06 07:31:33;;;;;;;10.38;4.03;;;0.00;99.90;;;;;;5041811;28;20065;-69
2022/03/06 07:33:58;;;;;;;9.23;3.90;;;0.10;99.90;;;;;;5062719;28;20041;-70
2022/03/06 07:36:24;;;;;;;8.52;3.40;;;0.20;99.90;;;;;;5050626;28;20131;-69
2022/03/06 07:38:50;;;;;;;9.30;4.05;;;0.20;99.90;;;;;;5070214;28;20041;-69
2022/03/06 07:41:17;;;;;;;8.00;3.80;;;0.20;99.90;;;;;;5068064;28;20043;-70
2022/03/06 07:43:43;;;;;;;8.18;3.85;;;0.30;99.90;;;;;;5043885;28;20045;-70
2022/03/06 07:46:09;;;;;;;8.20;3.50;;;0.30;99.90;;;;;;5046187;28;20131;-69
2022/03/06 07:48:34;;;;;;;7.38;3.78;;;0.30;99.90;;;;;;5050461;28;20135;-69
2022/03/06 07:51:00;;;;;;;6.90;3.70;;;0.40;99.90;;;;;;5048214;28;20064;-70
2022/03/06 07:53:26;;;;;;;7.88;3.15;;;0.50;99.90;;;;;;5055512;28;20066;-70
2022/03/06 07:55:51;;;;;;;6.50;3.30;;;0.60;99.90;;;;;;5059658;28;20444;-70
2022/03/06 07:58:17;;;;;;;6.55;3.03;;;0.60;99.90;;;;;;5064712;28;20055;-70
2022/03/06 08:00:42;;;;;;;8.18;3.13;;;0.70;99.90;;;;;;5067971;28;20048;-70
2022/03/06 08:03:08;;;;;;;7.68;3.05;;;0.70;99.90;;;;;;5057525;28;20032;-70
2022/03/06 08:05:33;;;;;;;5.40;3.10;;;0.80;99.90;;;;;;5064409;28;20040;-70
2022/03/06 08:07:59;;;;;;;5.85;2.72;;;0.90;99.90;;;;;;5067586;28;20029;-69
2022/03/06 08:10:24;;;;;;;6.80;3.08;;;0.90;99.90;;;;;;5050684;28;20094;-70
2022/03/06 08:12:50;;;;;;;5.75;3.10;;;1.10;99.90;;;;;;5051144;28;20044;-70
2022/03/06 08:15:16;;;;;;;7.57;3.20;;;1.00;99.90;;;;;;5065494;28;20059;-70
2022/03/06 08:17:42;;;;;;;7.68;2.92;;;1.10;99.90;;;;;;5068375;28;20093;-69
2022/03/06 08:20:08;;;;;;;7.10;3.15;;;1.10;99.90;;;;;;5069549;28;20070;-70
2022/03/06 08:22:34;;;;;;;6.30;2.80;;;1.10;99.90;;;;;;5068218;28;20052;-70
2022/03/06 08:25:00;;;;;;;7.00;3.25;;;1.20;99.90;;;;;;5052086;28;20044;-70
2022/03/06 08:27:26;;;;;;;7.30;2.67;;;1.30;99.90;;;;;;5059209;28;20119;-70
2022/03/06 08:29:51;;;;;;;7.05;3.00;;;1.30;99.90;;;;;;5053253;28;20044;-70
2022/03/06 08:32:18;;;;;;;5.95;2.80;;;1.40;99.90;;;;;;5058307;28;20044;-70
2022/03/06 08:34:44;;;;;;;8.88;2.88;;;1.50;99.90;;;;;;5049260;28;20037;-70
2022/03/06 08:37:09;;;;;;;5.50;2.70;;;1.50;99.90;;;;;;5064885;28;20036;-69
2022/03/06 08:39:35;;;;;;;4.47;2.80;;;1.80;99.90;;;;;;5063555;28;20078;-69
2022/03/06 08:42:01;;;;;;;5.97;2.55;;;1.60;99.90;;;;;;5059024;28;20052;-72
2022/03/06 08:44:26;;;;;;;4.85;2.40;;;1.70;99.90;;;;;;5065046;28;20484;-82
2022/03/06 08:46:52;;;;;;;10.15;2.92;;;1.80;99.90;;;;;;5043984;28;20508;-85
2022/03/06 08:49:18;;;;;;;4.82;2.67;;;1.80;99.90;;;;;;5044976;28;20142;-82
2022/03/06 08:51:43;;;;;;;5.53;2.38;;;1.90;99.90;;;;;;5058753;28;20377;-84
2022/03/06 08:54:09;;;;;;;5.55;2.53;;;1.90;99.90;;;;;;5065937;28;20400;-84
2022/03/06 08:56:35;;;;;;;5.65;2.25;;;2.00;99.90;;;;;;5049553;28;20055;-84
2022/03/06 08:59:00;;;;;;;5.65;2.45;;;2.10;99.90;;;;;;5063040;28;20182;-84
2022/03/06 09:01:26;;;;;;;5.50;2.40;;;2.20;99.90;;;;;;5068152;28;20571;-84
2022/03/06 09:03:51;;;;;;;5.85;2.58;;;2.40;99.90;;;;;;5043466;28;20122;-84
2022/03/06 09:06:17;;;;;;;5.78;2.40;;;2.40;99.90;;;;;;5064027;28;20095;-84
2022/03/06 09:08:44;;;;;;;6.35;2.40;;;2.30;99.90;;;;;;5066904;28;20420;-84
2022/03/06 09:11:10;;;;;;;5.55;2.30;;;2.40;99.90;;;;;;5062530;28;20510;-84
2022/03/06 09:13:36;;;;;;;5.38;2.30;;;2.50;99.90;;;;;;5064380;28;20041;-84
2022/03/06 09:16:03;;;;;;;7.10;2.60;;;2.50;99.90;;;;;;5067329;28;20076;-84
2022/03/06 09:18:29;;;;;;;7.30;2.47;;;2.60;99.90;;;;;;5047482;28;20044;-84
2022/03/06 09:20:54;;;;;;;4.20;2.00;;;2.60;99.90;;;;;;5069599;28;20045;-84
2022/03/06 09:23:20;;;;;;;6.80;2.30;;;2.70;99.90;;;;;;5068735;28;20072;-84
2022/03/06 09:25:46;;;;;;;4.65;2.20;;;2.80;99.90;;;;;;5067271;28;20549;-84
2022/03/06 09:28:11;;;;;;;5.57;2.47;;;2.90;99.90;;;;;;5064664;28;20115;-85
2022/03/06 09:30:37;;;;;;;5.13;2.92;;;3.00;99.90;;;;;;5067427;28;20518;-84
2022/03/06 09:33:03;;;;;;;5.28;2.60;;;3.20;99.90;;;;;;5047666;28;20041;-84
2022/03/06 09:35:29;;;;;;;5.50;2.28;;;3.30;99.90;;;;;;5066387;28;20056;-84
2022/03/06 09:37:54;;;;;;;7.15;2.40;;;3.40;99.90;;;;;;5065305;28;20040;-84
2022/03/06 09:40:20;;;;;;;4.25;2.30;;;3.60;99.90;;;;;;5047962;28;20095;-84
2022/03/06 09:42:46;;;;;;;6.03;2.33;;;3.70;99.90;;;;;;5069391;28;20500;-84
2022/03/06 09:45:13;;;;;;;6.65;2.25;;;3.70;99.90;;;;;;5070492;28;20045;-84
2022/03/06 09:47:40;;;;;;;5.60;3.03;;;3.80;99.90;;;;;;5064204;28;20067;-84
2022/03/06 09:50:07;;;;;;;7.82;2.33;;;3.90;99.90;;;;;;5046468;28;20056;-84
2022/03/06 09:52:33;;;;;;;6.97;2.60;;;4.00;99.90;;;;;;5069079;28;20504;-84
2022/03/06 09:54:59;;;;;;;4.13;2.20;;;4.10;99.90;;;;;;5068907;28;20078;-84
2022/03/06 09:57:25;;;;;;;11.35;2.90;;;4.20;99.90;;;;;;5059530;28;20079;-84
2022/03/06 09:59:50;;;;;;;4.70;2.55;;;4.30;99.90;;;;;;5065839;28;20048;-84
2022/03/06 10:02:16;;;;;;;6.60;2.25;;;4.40;99.90;;;;;;5065965;28;20033;-84
2022/03/06 10:04:43;;;;;;;8.02;2.70;;;4.60;99.90;;;;;;5070118;28;20032;-84
2022/03/06 10:07:14;;;;;;;4.43;2.38;;;4.70;99.90;;;;;;5067182;28;20115;-83
2022/03/06 10:09:51;;;;;;;6.22;2.95;;;4.80;99.90;;;;;;5062796;28;20048;-77
2022/03/06 10:12:18;;;;;;;6.22;2.60;;;4.90;99.90;;;;;;5057259;28;20074;-82
2022/03/06 10:14:44;;;;;;;4.75;2.40;;;5.00;99.90;;;;;;5044135;28;20055;-81
2022/03/06 10:17:21;;;;;;;6.50;2.55;;;5.20;99.90;;;;;;5059208;28;20450;-81
2022/03/06 10:19:57;;;;;;;7.07;2.50;;;5.20;99.90;;;;;;5055655;28;20055;-79
2022/03/06 10:22:28;;;;;;;5.97;2.55;;;5.40;99.90;;;;;;5066157;28;20080;-80
2022/03/06 10:24:56;;;;;;;5.97;2.60;;;5.50;99.90;;;;;;5066094;28;20059;-80
2022/03/06 10:27:41;;;;;;;5.47;2.63;;;5.60;99.90;;;;;;5045229;28;20396;-80
2022/03/06 10:30:32;;;;;;;4.90;2.30;;;5.60;99.90;;;;;;5068167;28;20037;-81
2022/03/06 10:33:00;;;;;;;6.07;2.30;;;5.70;99.90;;;;;;5062820;28;20048;-79
2022/03/06 10:35:37;;;;;;;6.18;2.53;;;5.90;99.90;;;;;;5068604;28;20461;-78
2022/03/06 10:38:26;;;;;;;6.05;2.20;;;6.00;99.90;;;;;;5047992;28;20049;-78
2022/03/06 10:40:53;;;;;;;4.82;1.90;;;6.10;99.90;;;;;;5064540;28;20749;-76
2022/03/06 10:43:24;;;;;;;4.35;2.15;;;6.10;99.90;;;;;;5062316;28;20128;-80
2022/03/06 10:45:51;;;;;;;7.22;2.50;;;6.20;99.90;;;;;;5045165;28;20053;-76
2022/03/06 10:48:17;;;;;;;7.03;2.70;;;6.30;99.90;;;;;;5064246;28;20060;-76
2022/03/06 10:50:44;;;;;;;4.30;2.33;;;6.40;99.90;;;;;;5037717;28;20080;-75
2022/03/06 10:53:23;;;;;;;6.15;2.58;;;6.50;99.90;;;;;;5041619;28;20056;-78
2022/03/06 10:55:49;;;;;;;7.20;2.80;;;6.60;99.90;;;;;;5058838;28;20044;-75
2022/03/06 10:58:14;;;;;;;5.53;2.50;;;6.70;99.90;;;;;;5060021;28;20496;-75
2022/03/06 11:00:44;;;;;;;4.82;2.65;;;6.70;99.90;;;;;;5062122;28;20045;-76
2022/03/06 11:03:12;;;;;;;5.20;2.40;;;6.70;99.90;;;;;;5066210;28;20080;-77
2022/03/06 11:05:42;;;;;;;7.82;2.80;;;6.80;99.90;;;;;;5046474;28;20488;-77
2022/03/06 11:08:11;;;;;;;6.10;2.17;;;6.90;99.90;;;;;;5061471;28;20384;-76
2022/03/06 11:10:39;;;;;;;5.03;2.58;;;7.00;99.90;;;;;;5059578;28;20044;-77
2022/03/06 11:13:05;;;;;;;5.82;2.50;;;7.20;99.90;;;;;;5044398;28;20068;-77
2022/03/06 11:15:31;;;;;;;4.63;2.10;;;7.20;99.90;;;;;;5040642;28;20388;-77
2022/03/06 11:18:00;;;;;;;6.40;2.50;;;7.30;99.90;;;;;;5047890;28;20048;-78
2022/03/06 11:20:30;;;;;;;5.80;2.45;;;7.30;99.90;;;;;;5042398;28;20069;-77
2022/03/06 11:23:02;;;;;;;4.38;2.20;;;7.40;99.90;;;;;;5045754;28;20048;-77
2022/03/06 11:25:30;;;;;;;5.85;2.20;;;7.50;99.90;;;;;;5040968;28;20385;-77
2022/03/06 11:28:27;;;;;;;5.65;2.58;;;7.60;99.90;;;;;;5060888;28;20049;-77
2022/03/06 11:30:58;;;;;;;6.43;2.72;;;7.70;99.90;;;;;;5060118;28;20373;-77
2022/03/06 11:33:24;;;;;;;5.82;2.78;;;7.80;98.80;;;;;;5046191;28;20048;-77
2022/03/06 11:35:51;;;;;;;4.68;2.75;;;7.90;99.90;;;;;;5046883;28;20046;-77
2022/03/06 11:38:20;;;;;;;6.80;2.42;;;8.20;99.30;;;;;;5064624;28;20135;-78
2022/03/06 11:40:57;;;;;;;4.38;2.65;;;8.20;99.00;;;;;;5042404;28;20476;-85
2022/03/06 11:43:31;;;;;;;4.18;2.50;;;8.30;98.00;;;;;;5049250;28;20043;-83
2022/03/06 11:46:09;;;;;;;6.07;2.88;;;8.40;98.80;;;;;;5056215;28;20055;-85
2022/03/06 11:48:34;;;;;;;6.13;3.00;;;8.20;97.40;;;;;;5036091;28;20057;-83
2022/03/06 11:51:21;;;;;;;5.80;2.50;;;8.20;99.80;;;;;;5043885;28;20554;-85
2022/03/06 11:53:48;;;;;;;7.72;2.30;;;8.10;99.90;;;;;;5048305;28;20056;-85
2022/03/06 11:56:35;;;;;;;5.25;2.50;;;8.00;99.90;;;;;;5068142;28;20407;-87
2022/03/06 11:59:17;;;;;;;7.78;2.28;;;8.00;99.90;;;;;;5067858;28;20044;-85
2022/03/06 12:01:45;;;;;;;5.97;2.65;;;8.00;99.90;;;;;;5048579;28;20040;-84
2022/03/06 12:04:15;;;;;;;6.90;3.03;;;8.00;99.90;;;;;;5062905;28;20044;-84
2022/03/06 12:06:52;;;;;;;5.25;2.60;;;7.90;99.90;;;;;;5069983;28;20079;-84
2022/03/06 12:09:41;;;;;;;6.25;2.53;;;7.80;99.90;;;;;;5049065;28;20151;-83
2022/03/06 12:12:09;;;;;;;6.13;2.63;;;7.80;99.90;;;;;;5048709;28;20106;-81
2022/03/06 12:14:37;;;;;;;4.40;2.33;;;7.80;99.90;;;;;;5053031;28;20045;-82
2022/03/06 12:17:03;;;;;;;4.65;2.25;;;7.70;99.90;;;;;;5050762;28;20056;-81
2022/03/06 12:19:30;;;;;;;6.68;2.85;;;7.80;99.90;;;;;;5049434;28;20049;-82
2022/03/06 12:22:11;;;;;;;5.30;2.38;;;8.00;99.90;;;;;;5051409;28;20049;-83
2022/03/06 12:24:38;;;;;;;6.28;2.70;;;8.20;99.90;;;;;;5049107;28;20119;-82
2022/03/06 12:27:23;;;;;;;5.35;3.00;;;8.30;99.90;;;;;;5051034;28;20036;-81
2022/03/06 12:29:48;;;;;;;8.10;3.08;;;8.40;99.90;;;;;;5085549;28;20110;-81
2022/03/06 12:32:26;;;;;;;6.20;2.75;;;8.40;99.90;;;;;;5051204;28;20048;-81
2022/03/06 12:35:06;;;;;;;8.18;3.10;;;8.40;99.90;;;;;;5049125;28;20048;-80
2022/03/06 12:37:34;;;;;;;4.63;2.50;;;8.50;99.90;;;;;;5051744;28;20044;-79
2022/03/06 12:40:00;;;;;;;5.25;2.75;;;8.70;99.90;;;;;;5049411;28;20047;-80
2022/03/06 12:42:32;;;;;;;6.50;2.53;;;8.70;99.70;;;;;;5048663;28;20044;-83
2022/03/06 12:45:00;;;;;;;7.15;2.83;;;8.70;99.90;;;;;;5049800;28;20036;-82
2022/03/06 12:47:32;;;;;;;6.95;2.72;;;8.80;99.90;;;;;;5047162;28;20061;-80
2022/03/06 12:49:59;;;;;;;6.35;2.53;;;8.80;99.90;;;;;;5043935;28;20041;-81
2022/03/06 12:52:27;;;;;;;5.55;2.63;;;8.90;99.90;;;;;;5047570;28;20051;-77
2022/03/06 12:54:54;;;;;;;6.97;2.28;;;8.80;99.90;;;;;;5051730;28;20102;-78